createdAt,value
2018-06-01T00:00:10.152Z,18.92
2018-06-01T00:02:38.317Z,18.85
2018-06-01T00:05:06.488Z,18.78
2018-06-01T00:07:34.649Z,18.75
2018-06-01T00:10:02.817Z,18.73
2018-06-01T00:12:30.986Z,18.74
2018-06-01T00:14:59.162Z,18.70
2018-06-01T00:17:27.352Z,18.69
2018-06-01T00:19:55.534Z,18.68
2018-06-01T00:22:23.742Z,18.63
2018-06-01T00:24:51.888Z,18.62
2018-06-01T00:27:21.147Z,18.56
2018-06-01T00:29:49.341Z,18.53
2018-06-01T00:32:17.848Z,18.52
2018-06-01T00:34:46.045Z,18.55
2018-06-01T00:37:14.212Z,18.56
2018-06-01T00:39:42.387Z,18.54
2018-06-01T00:42:10.558Z,18.57
2018-06-01T00:44:38.731Z,18.59
2018-06-01T00:47:06.900Z,18.60
2018-06-01T00:49:35.062Z,18.61
2018-06-01T00:52:03.858Z,18.59
2018-06-01T00:54:49.872Z,18.60
2018-06-01T00:57:18.051Z,18.61
2018-06-01T00:59:47.054Z,18.64
2018-06-01T01:02:21.766Z,18.67
2018-06-01T01:04:49.910Z,18.67
2018-06-01T01:07:18.117Z,18.67
2018-06-01T01:09:46.276Z,18.72
2018-06-01T01:14:47.049Z,18.74
2018-06-01T01:17:19.168Z,18.75
2018-06-01T01:19:48.270Z,18.76
2018-06-01T01:22:16.436Z,18.78
2018-06-01T01:24:44.637Z,18.81
2018-06-01T01:27:12.764Z,18.81
2018-06-01T01:29:40.937Z,18.82
2018-06-01T01:32:23.976Z,18.81
2018-06-01T01:34:52.157Z,18.82
2018-06-01T01:37:31.193Z,18.83
2018-06-01T01:39:59.377Z,18.80
2018-06-01T01:42:28.485Z,18.80
2018-06-01T01:44:56.667Z,18.71
2018-06-01T01:47:24.833Z,18.71
2018-06-01T01:49:53.815Z,18.72
2018-06-01T01:52:21.996Z,18.74
2018-06-01T01:54:50.168Z,18.76
2018-06-01T01:57:18.512Z,18.74
2018-06-01T01:59:46.678Z,18.75
2018-06-01T02:02:14.846Z,18.74
2018-06-01T02:04:43.031Z,18.74
2018-06-01T02:07:12.082Z,18.75
2018-06-01T02:09:40.278Z,18.74
2018-06-01T02:12:08.419Z,18.74
2018-06-01T02:14:36.636Z,18.72
2018-06-01T02:17:04.891Z,18.70
2018-06-01T02:19:33.090Z,18.72
2018-06-01T02:22:01.268Z,18.72
2018-06-01T02:24:29.490Z,18.73
2018-06-01T02:26:57.618Z,18.70
2018-06-01T02:29:25.772Z,18.66
2018-06-01T02:31:53.949Z,18.62
2018-06-01T02:34:23.895Z,18.61
2018-06-01T02:36:52.090Z,18.62
2018-06-01T02:39:20.249Z,18.61
2018-06-01T02:41:48.849Z,18.58
2018-06-01T02:44:16.992Z,18.59
2018-06-01T02:46:45.157Z,18.60
2018-06-01T02:49:13.313Z,18.59
2018-06-01T02:51:41.509Z,18.58
2018-06-01T02:54:09.673Z,18.57
2018-06-01T02:56:37.817Z,18.57
2018-06-01T02:59:05.993Z,18.58
2018-06-01T03:01:34.158Z,18.58
2018-06-01T03:04:02.350Z,18.58
2018-06-01T03:06:42.111Z,18.58
2018-06-01T03:09:10.283Z,18.55
2018-06-01T03:11:38.425Z,18.51
2018-06-01T03:14:06.573Z,18.50
2018-06-01T03:16:34.751Z,18.50
2018-06-01T03:19:02.945Z,18.46
2018-06-01T03:21:31.890Z,18.40
2018-06-01T03:24:00.590Z,18.41
2018-06-01T03:26:28.753Z,18.45
2018-06-01T03:28:56.905Z,18.43
2018-06-01T03:31:25.065Z,18.39
2018-06-01T03:33:53.215Z,18.37
2018-06-01T03:36:22.082Z,18.33
2018-06-01T03:38:50.240Z,18.29
2018-06-01T03:41:18.411Z,18.25
2018-06-01T03:43:46.583Z,18.19
2018-06-01T03:46:14.725Z,18.17
2018-06-01T03:48:42.903Z,18.13
2018-06-01T03:51:11.057Z,18.10
2018-06-01T03:53:39.258Z,18.08
2018-06-01T03:56:07.423Z,18.06
2018-06-01T03:58:35.914Z,18.06
2018-06-01T04:01:04.076Z,18.03
2018-06-01T04:03:32.270Z,18.05
2018-06-01T04:06:00.455Z,18.07
2018-06-01T04:08:28.626Z,18.07
2018-06-01T04:10:56.784Z,18.07
2018-06-01T04:13:24.997Z,18.03
2018-06-01T04:15:53.177Z,18.05
2018-06-01T04:18:22.891Z,18.05
2018-06-01T04:20:51.067Z,18.03
2018-06-01T04:23:19.218Z,18.04
2018-06-01T04:25:47.402Z,18.00
2018-06-01T04:28:15.534Z,18.01
2018-06-01T04:30:45.456Z,18.04
2018-06-01T04:33:13.974Z,18.09
2018-06-01T04:35:42.122Z,18.06
2018-06-01T04:38:10.280Z,18.07
2018-06-01T04:40:38.447Z,18.09
2018-06-01T04:43:06.620Z,18.05
2018-06-01T04:45:34.794Z,18.02
2018-06-01T04:48:02.966Z,18.03
2018-06-01T04:50:31.154Z,18.05
2018-06-01T04:52:59.332Z,18.03
2018-06-01T04:55:27.486Z,18.07
2018-06-01T04:57:55.636Z,18.14
2018-06-01T05:00:25.444Z,18.13
2018-06-01T05:02:53.589Z,18.12
2018-06-01T05:05:22.744Z,18.15
2018-06-01T05:07:50.906Z,18.20
2018-06-01T05:10:19.080Z,18.25
2018-06-01T05:12:47.231Z,18.28
2018-06-01T05:15:15.431Z,18.32
2018-06-01T05:17:43.924Z,18.24
2018-06-01T05:20:15.832Z,18.21
2018-06-01T05:22:44.016Z,18.25
2018-06-01T05:25:12.210Z,18.31
2018-06-01T05:27:41.376Z,18.35
2018-06-01T05:30:09.924Z,18.29
2018-06-01T05:32:38.078Z,18.32
2018-06-01T05:35:06.245Z,18.33
2018-06-01T05:37:34.418Z,18.39
2018-06-01T05:40:02.578Z,18.46
2018-06-01T05:42:30.736Z,18.53
2018-06-01T05:44:58.878Z,18.55
2018-06-01T05:47:27.048Z,18.56
2018-06-01T05:49:55.212Z,18.62
2018-06-01T05:52:23.354Z,18.65
2018-06-01T05:54:51.522Z,18.67
2018-06-01T05:57:19.718Z,18.68
2018-06-01T05:59:47.890Z,18.64
2018-06-01T06:02:19.934Z,18.70
2018-06-01T06:04:48.076Z,18.73
2018-06-01T06:07:16.239Z,18.80
2018-06-01T06:09:44.406Z,18.90
2018-06-01T06:12:12.552Z,18.91
2018-06-01T06:14:40.712Z,18.93
2018-06-01T06:17:14.823Z,18.89
2018-06-01T06:19:42.962Z,18.94
2018-06-01T06:22:11.141Z,19.00
2018-06-01T06:24:40.774Z,18.98
2018-06-01T06:27:08.936Z,19.01
2018-06-01T06:29:37.096Z,19.06
2018-06-01T06:32:05.272Z,19.11
2018-06-01T06:34:33.410Z,19.14
2018-06-01T06:37:01.588Z,19.26
2018-06-01T06:39:29.758Z,19.31
2018-06-01T06:41:57.906Z,19.28
2018-06-01T06:44:29.440Z,19.26
2018-06-01T06:46:57.596Z,19.27
2018-06-01T06:49:38.417Z,19.15
2018-06-01T06:52:06.582Z,19.18
2018-06-01T06:54:38.623Z,19.22
2018-06-01T06:57:06.793Z,19.24
2018-06-01T06:59:34.966Z,19.29
2018-06-01T07:02:03.170Z,19.33
2018-06-01T07:04:31.380Z,19.28
2018-06-01T07:07:00.830Z,19.28
2018-06-01T07:09:28.991Z,19.24
2018-06-01T07:11:57.162Z,19.26
2018-06-01T07:14:25.319Z,19.33
2018-06-01T07:16:53.856Z,19.28
2018-06-01T07:19:22.032Z,19.30
2018-06-01T07:21:50.192Z,19.28
2018-06-01T07:24:21.395Z,19.36
2018-06-01T07:26:49.566Z,19.46
2018-06-01T07:29:17.770Z,19.53
2018-06-01T07:31:45.939Z,19.62
2018-06-01T07:34:14.915Z,19.67
2018-06-01T07:36:43.542Z,19.69
2018-06-01T07:39:11.704Z,19.69
2018-06-01T07:41:39.854Z,19.65
2018-06-01T07:44:08.035Z,19.69
2018-06-01T07:46:36.198Z,19.71
2018-06-01T07:49:04.380Z,19.84
2018-06-01T07:51:32.550Z,19.87
2018-06-01T07:54:00.695Z,19.92
2018-06-01T07:56:28.875Z,19.84
2018-06-01T07:58:57.071Z,19.90
2018-06-01T08:01:25.242Z,19.84
2018-06-01T08:03:53.380Z,19.87
2018-06-01T08:06:22.521Z,19.87
2018-06-01T08:08:50.702Z,20.00
2018-06-01T08:11:18.855Z,20.02
2018-06-01T08:13:47.349Z,20.04
2018-06-01T08:16:16.096Z,20.13
2018-06-01T08:18:44.271Z,20.21
2018-06-01T08:21:13.615Z,20.26
2018-06-01T08:23:41.767Z,20.32
2018-06-01T08:26:10.013Z,20.43
2018-06-01T08:28:41.963Z,20.44
2018-06-01T08:31:10.105Z,20.36
2018-06-01T08:33:38.255Z,20.46
2018-06-01T08:36:06.434Z,20.36
2018-06-01T08:38:34.597Z,20.44
2018-06-01T08:41:02.771Z,20.61
2018-06-01T08:43:30.940Z,20.77
2018-06-01T08:46:00.546Z,20.89
2018-06-01T08:48:28.692Z,21.01
2018-06-01T08:50:56.843Z,21.23
2018-06-01T08:53:29.223Z,21.29
2018-06-01T08:55:57.365Z,21.27
2018-06-01T08:58:25.536Z,21.18
2018-06-01T09:00:53.678Z,21.17
2018-06-01T09:03:21.969Z,21.17
2018-06-01T09:05:50.117Z,21.25
2018-06-01T09:08:18.285Z,21.28
2018-06-01T09:10:46.436Z,21.45
2018-06-01T09:13:14.581Z,21.44
2018-06-01T09:15:42.761Z,21.62
2018-06-01T09:18:10.943Z,21.83
2018-06-01T09:20:39.099Z,21.80
2018-06-01T09:25:42.165Z,21.91
2018-06-01T09:28:10.369Z,22.08
2018-06-01T09:30:38.544Z,22.19
2018-06-01T09:33:06.717Z,22.35
2018-06-01T09:35:34.901Z,22.30
2018-06-01T09:38:03.063Z,22.26
2018-06-01T09:40:31.236Z,22.08
2018-06-01T09:42:59.383Z,22.08
2018-06-01T09:45:27.552Z,22.17
2018-06-01T09:47:55.715Z,22.30
2018-06-01T09:50:29.775Z,22.25
2018-06-01T09:52:57.928Z,22.39
2018-06-01T09:55:26.115Z,22.40
2018-06-01T09:57:54.296Z,22.44
2018-06-01T10:00:28.029Z,22.41
2018-06-01T10:02:56.220Z,22.40
2018-06-01T10:05:24.441Z,22.35
2018-06-01T10:07:52.597Z,22.35
2018-06-01T10:10:26.353Z,22.40
2018-06-01T10:12:54.512Z,22.40
2018-06-01T10:15:22.683Z,22.40
2018-06-01T10:17:50.831Z,22.49
2018-06-01T10:20:19.008Z,22.47
2018-06-01T10:22:47.155Z,22.44
2018-06-01T10:25:15.323Z,22.53
2018-06-01T10:27:43.470Z,22.60
2018-06-01T10:30:11.653Z,22.36
2018-06-01T10:32:39.819Z,22.49
2018-06-01T10:35:08.706Z,22.70
2018-06-01T10:40:09.739Z,23.27
2018-06-01T10:42:37.911Z,23.32
2018-06-01T10:45:08.269Z,23.22
2018-06-01T10:50:09.228Z,23.31
2018-06-01T10:52:37.444Z,23.10
2018-06-01T10:57:38.382Z,22.94
2018-06-01T11:00:06.549Z,23.06
2018-06-01T11:02:36.809Z,23.19
2018-06-01T11:05:04.981Z,23.43
2018-06-01T11:07:33.159Z,23.53
2018-06-01T11:10:01.329Z,23.67
2018-06-01T11:12:29.471Z,23.92
2018-06-01T11:14:57.635Z,24.15
2018-06-01T11:17:26.140Z,24.36
2018-06-01T11:19:54.395Z,24.55
2018-06-01T11:22:22.558Z,24.37
2018-06-01T11:24:50.745Z,24.45
2018-06-01T11:27:18.910Z,24.59
2018-06-01T11:29:48.136Z,24.64
2018-06-01T11:32:22.671Z,24.42
2018-06-01T11:34:50.812Z,24.19
2018-06-01T11:37:18.959Z,23.93
2018-06-01T11:39:47.117Z,23.90
2018-06-01T11:42:15.297Z,24.16
2018-06-01T11:44:43.463Z,24.29
2018-06-01T11:47:11.686Z,24.37
2018-06-01T11:49:39.844Z,24.54
2018-06-01T11:52:08.013Z,24.55
2018-06-01T11:54:36.160Z,24.54
2018-06-01T11:57:04.333Z,24.55
2018-06-01T11:59:32.499Z,24.79
2018-06-01T12:02:00.668Z,24.89
2018-06-01T12:04:28.830Z,25.06
2018-06-01T12:06:57.007Z,25.04
2018-06-01T12:09:25.183Z,25.07
2018-06-01T12:11:53.343Z,25.03
2018-06-01T12:14:21.509Z,24.82
2018-06-01T12:16:49.764Z,24.91
2018-06-01T12:19:24.829Z,24.96
2018-06-01T12:21:52.980Z,24.98
2018-06-01T12:24:22.685Z,24.54
2018-06-01T12:26:50.850Z,24.55
2018-06-01T12:29:25.907Z,24.83
2018-06-01T12:31:54.080Z,25.05
2018-06-01T12:34:22.248Z,25.22
2018-06-01T12:36:50.461Z,25.42
2018-06-01T12:39:19.513Z,25.51
2018-06-01T12:41:47.689Z,25.72
2018-06-01T12:44:15.839Z,26.05
2018-06-01T12:46:44.002Z,25.90
2018-06-01T12:49:12.151Z,25.87
2018-06-01T12:51:40.329Z,26.21
2018-06-01T12:54:08.564Z,26.43
2018-06-01T12:56:36.712Z,26.46
2018-06-01T12:59:04.866Z,26.50
2018-06-01T13:01:33.057Z,26.73
2018-06-01T13:04:01.229Z,26.79
2018-06-01T13:06:29.397Z,26.58
2018-06-01T13:08:57.658Z,26.52
2018-06-01T13:11:25.837Z,26.64
2018-06-01T13:13:53.997Z,26.86
2018-06-01T13:16:22.169Z,26.87
2018-06-01T13:18:52.090Z,26.93
2018-06-01T13:21:20.637Z,27.11
2018-06-01T13:23:48.806Z,27.41
2018-06-01T13:26:16.949Z,27.45
2018-06-01T13:28:45.194Z,27.00
2018-06-01T13:31:13.335Z,26.65
2018-06-01T13:33:41.507Z,26.53
2018-06-01T13:36:09.692Z,26.72
2018-06-01T13:38:37.836Z,26.76
2018-06-01T13:41:06.024Z,26.42
2018-06-01T13:43:34.208Z,26.22
2018-06-01T13:46:02.391Z,26.13
2018-06-01T13:48:30.556Z,26.12
2018-06-01T13:51:02.556Z,26.47
2018-06-01T13:53:30.723Z,26.93
2018-06-01T13:55:59.875Z,27.28
2018-06-01T14:00:32.101Z,28.15
2018-06-01T14:03:00.257Z,28.67
2018-06-01T14:05:28.420Z,28.62
2018-06-01T14:07:56.597Z,28.37
2018-06-01T14:10:25.613Z,28.82
2018-06-01T14:12:53.813Z,29.00
2018-06-01T14:15:21.964Z,29.68
2018-06-01T14:17:50.147Z,30.11
2018-06-01T14:20:18.342Z,30.52
2018-06-01T14:22:46.518Z,30.91
2018-06-01T14:25:17.478Z,30.64
2018-06-01T14:27:45.627Z,29.65
2018-06-01T14:30:17.748Z,29.10
2018-06-01T14:32:45.981Z,28.53
2018-06-01T14:35:14.204Z,28.06
2018-06-01T14:37:42.392Z,28.01
2018-06-01T14:40:13.326Z,28.49
2018-06-01T14:42:41.508Z,28.39
2018-06-01T14:45:09.717Z,28.04
2018-06-01T14:47:37.878Z,27.51
2018-06-01T14:50:06.043Z,28.30
2018-06-01T14:52:34.211Z,28.94
2018-06-01T14:55:02.359Z,29.65
2018-06-01T14:57:30.551Z,30.42
2018-06-01T14:59:58.696Z,30.93
2018-06-01T15:02:26.880Z,30.96
2018-06-01T15:04:55.022Z,31.10
2018-06-01T15:07:23.196Z,29.95
2018-06-01T15:09:52.736Z,28.93
2018-06-01T15:12:23.890Z,29.31
2018-06-01T15:14:52.053Z,30.03
2018-06-01T15:17:20.228Z,30.15
2018-06-01T15:19:48.402Z,30.03
2018-06-01T15:22:16.547Z,30.29
2018-06-01T15:24:44.724Z,30.84
2018-06-01T15:27:12.871Z,31.24
2018-06-01T15:29:42.015Z,31.27
2018-06-01T15:32:10.203Z,31.19
2018-06-01T15:34:38.370Z,31.39
2018-06-01T15:37:06.539Z,31.63
2018-06-01T15:39:34.677Z,31.49
2018-06-01T15:42:02.853Z,31.45
2018-06-01T15:44:31.029Z,31.37
2018-06-01T15:46:59.190Z,30.91
2018-06-01T15:49:28.604Z,30.80
2018-06-01T15:51:56.759Z,31.10
2018-06-01T15:54:24.930Z,30.91
2018-06-01T15:56:53.114Z,30.40
2018-06-01T15:59:21.268Z,29.73
2018-06-01T16:01:49.434Z,29.25
2018-06-01T16:04:17.621Z,29.08
2018-06-01T16:06:45.783Z,28.83
2018-06-01T16:11:46.768Z,28.58
2018-06-01T16:14:14.957Z,28.61
2018-06-01T16:16:43.622Z,28.88
2018-06-01T16:19:11.791Z,28.94
2018-06-01T16:21:40.474Z,28.18
2018-06-01T16:24:08.652Z,27.95
2018-06-01T16:26:36.809Z,27.94
2018-06-01T16:29:04.973Z,27.84
2018-06-01T16:31:33.168Z,27.64
2018-06-01T16:34:01.321Z,27.40
2018-06-01T16:36:29.494Z,27.05
2018-06-01T16:38:57.675Z,27.05
2018-06-01T16:41:25.845Z,27.14
2018-06-01T16:44:00.958Z,27.15
2018-06-01T16:46:29.117Z,27.12
2018-06-01T16:48:57.303Z,26.81
2018-06-01T16:51:25.507Z,26.67
2018-06-01T16:53:53.656Z,26.44
2018-06-01T16:56:21.873Z,26.33
2018-06-01T16:58:50.020Z,26.24
2018-06-01T17:01:18.179Z,26.10
2018-06-01T17:03:46.333Z,26.08
2018-06-01T17:06:14.483Z,26.05
2018-06-01T17:08:42.659Z,25.96
2018-06-01T17:11:10.810Z,25.88
2018-06-01T17:13:38.993Z,25.80
2018-06-01T17:16:08.509Z,25.79
2018-06-01T17:18:36.706Z,25.73
2018-06-01T17:21:04.859Z,25.65
2018-06-01T17:23:33.031Z,25.58
2018-06-01T17:26:01.207Z,25.36
2018-06-01T17:28:29.393Z,25.26
2018-06-01T17:30:57.569Z,25.26
2018-06-01T17:33:25.719Z,25.25
2018-06-01T17:35:53.920Z,25.19
2018-06-01T17:38:22.741Z,25.12
2018-06-01T17:40:50.906Z,25.09
2018-06-01T17:43:19.066Z,25.01
2018-06-01T17:45:47.222Z,24.97
2018-06-01T17:48:15.417Z,24.91
2018-06-01T17:50:45.597Z,24.76
2018-06-01T17:53:14.587Z,24.66
2018-06-01T17:55:42.753Z,24.60
2018-06-01T17:58:10.927Z,24.51
2018-06-01T18:00:39.128Z,24.47
2018-06-01T18:03:07.319Z,24.42
2018-06-01T18:05:35.471Z,24.37
2018-06-01T18:08:03.654Z,24.33
2018-06-01T18:10:31.813Z,24.29
2018-06-01T18:12:59.989Z,24.21
2018-06-01T18:15:28.204Z,24.11
2018-06-01T18:17:56.343Z,24.08
2018-06-01T18:20:24.513Z,24.04
2018-06-01T18:22:52.683Z,24.01
2018-06-01T18:25:20.859Z,23.95
2018-06-01T18:27:49.053Z,23.90
2018-06-01T18:30:17.193Z,23.87
2018-06-01T18:32:45.363Z,23.82
2018-06-01T18:35:14.387Z,23.77
2018-06-01T18:37:42.552Z,23.73
2018-06-01T18:40:11.489Z,23.69
2018-06-01T18:42:40.551Z,23.63
2018-06-01T18:45:08.707Z,23.55
2018-06-01T18:47:36.898Z,23.49
2018-06-01T18:50:05.212Z,23.41
2018-06-01T18:52:33.355Z,23.36
2018-06-01T18:55:01.537Z,23.29
2018-06-01T18:57:29.705Z,23.24
2018-06-01T18:59:57.886Z,23.19
2018-06-01T19:02:26.023Z,23.15
2018-06-01T19:04:54.238Z,23.12
2018-06-01T19:07:22.418Z,23.05
2018-06-01T19:09:50.581Z,22.99
2018-06-01T19:12:18.737Z,22.94
2018-06-01T19:14:46.932Z,22.89
2018-06-01T19:17:15.149Z,22.83
2018-06-01T19:19:43.314Z,22.79
2018-06-01T19:22:11.471Z,22.75
2018-06-01T19:24:39.738Z,22.71
2018-06-01T19:27:08.560Z,22.68
2018-06-01T19:29:37.459Z,22.65
2018-06-01T19:32:05.648Z,22.62
2018-06-01T19:34:33.885Z,22.58
2018-06-01T19:37:02.029Z,22.51
2018-06-01T19:39:38.377Z,22.46
2018-06-01T19:42:06.517Z,22.41
2018-06-01T19:44:34.699Z,22.32
2018-06-01T19:47:03.038Z,22.24
2018-06-01T19:49:31.200Z,22.18
2018-06-01T19:51:59.399Z,22.10
2018-06-01T19:54:27.585Z,22.04
2018-06-01T19:56:55.761Z,21.97
2018-06-01T19:59:23.985Z,21.92
2018-06-01T20:01:52.105Z,21.86
2018-06-01T20:04:20.268Z,21.80
2018-06-01T20:06:48.436Z,21.74
2018-06-01T20:09:16.607Z,21.72
2018-06-01T20:11:44.786Z,21.66
2018-06-01T20:14:13.026Z,21.61
2018-06-01T20:16:41.187Z,21.54
2018-06-01T20:19:15.900Z,21.50
2018-06-01T20:21:44.072Z,21.47
2018-06-01T20:24:12.810Z,21.43
2018-06-01T20:26:41.016Z,21.38
2018-06-01T20:29:11.691Z,21.33
2018-06-01T20:31:39.884Z,21.26
2018-06-01T20:34:08.062Z,21.22
2018-06-01T20:36:36.233Z,21.16
2018-06-01T20:39:04.415Z,21.13
2018-06-01T20:41:33.228Z,21.08
2018-06-01T20:44:01.425Z,21.06
2018-06-01T20:46:29.570Z,21.01
2018-06-01T20:48:57.730Z,20.99
2018-06-01T20:51:25.909Z,20.96
2018-06-01T20:53:54.082Z,20.93
2018-06-01T20:56:22.240Z,20.89
2018-06-01T20:58:50.403Z,20.89
2018-06-01T21:01:18.652Z,20.88
2018-06-01T21:03:46.795Z,20.85
2018-06-01T21:06:14.976Z,20.83
2018-06-01T21:08:43.142Z,20.80
2018-06-01T21:11:12.023Z,20.72
2018-06-01T21:13:40.820Z,20.67
2018-06-01T21:16:09.010Z,20.58
2018-06-01T21:18:37.255Z,20.47
2018-06-01T21:21:05.514Z,20.42
2018-06-01T21:23:33.710Z,20.37
2018-06-01T21:26:01.886Z,20.33
2018-06-01T21:28:30.068Z,20.29
2018-06-01T21:30:58.268Z,20.27
2018-06-01T21:33:27.526Z,20.24
2018-06-01T21:35:55.699Z,20.20
2018-06-01T21:38:23.867Z,20.16
2018-06-01T21:40:52.056Z,20.15
2018-06-01T21:43:20.227Z,20.11
2018-06-01T21:45:48.393Z,20.07
2018-06-01T21:48:19.714Z,20.03
2018-06-01T21:50:47.922Z,19.99
2018-06-01T21:53:16.076Z,19.95
2018-06-01T21:55:44.267Z,19.91
2018-06-01T21:58:12.456Z,19.84
2018-06-01T22:00:40.701Z,19.80
2018-06-01T22:03:08.888Z,19.78
2018-06-01T22:05:37.052Z,19.73
2018-06-01T22:08:05.495Z,19.71
2018-06-01T22:10:33.656Z,19.69
2018-06-01T22:13:01.837Z,19.63
2018-06-01T22:15:30.036Z,19.61
2018-06-01T22:17:58.688Z,19.59
2018-06-01T22:20:26.846Z,19.53
2018-06-01T22:22:55.006Z,19.48
2018-06-01T22:25:24.666Z,19.47
2018-06-01T22:27:52.895Z,19.39
2018-06-01T22:30:21.244Z,19.34
2018-06-01T22:32:49.437Z,19.30
2018-06-01T22:35:17.636Z,19.27
2018-06-01T22:37:45.797Z,19.24
2018-06-01T22:40:13.974Z,19.20
2018-06-01T22:42:42.135Z,19.19
2018-06-01T22:45:13.756Z,19.19
2018-06-01T22:47:41.934Z,19.17
2018-06-01T22:50:10.094Z,19.15
2018-06-01T22:52:38.288Z,19.11
2018-06-01T22:55:06.456Z,19.08
2018-06-01T22:57:34.640Z,19.02
2018-06-01T23:00:02.793Z,18.96
2018-06-01T23:02:30.969Z,19.00
2018-06-01T23:04:59.126Z,19.05
2018-06-01T23:07:27.334Z,19.08
2018-06-01T23:09:55.496Z,19.12
2018-06-01T23:12:23.660Z,19.14
2018-06-01T23:14:51.826Z,19.13
2018-06-01T23:17:19.997Z,19.14
2018-06-01T23:19:48.213Z,19.17
2018-06-01T23:22:17.101Z,19.19
2018-06-01T23:24:45.324Z,19.20
2018-06-01T23:27:13.482Z,19.22
2018-06-01T23:29:41.660Z,19.20
